sensor_id;sensor_type;location;lat;lon;timestamp;temperature;humidity
11549;DHT22;61444;59.472;18.306;2023-07-31T08:58:49;13.90;99.90
11549;DHT22;61444;59.472;18.306;2023-07-31T09:01:00;14.00;99.90
11549;DHT22;61444;59.472;18.306;2023-07-31T09:03:17;14.10;99.90
11549;DHT22;61444;59.472;18.306;2023-07-31T09:11:56;14.30;99.90
11549;DHT22;61444;59.472;18.306;2023-07-31T09:14:08;14.40;99.90
11549;DHT22;61444;59.472;18.306;2023-07-31T09:18:26;14.40;99.90
11549;DHT22;61444;59.472;18.306;2023-07-31T09:20:35;14.70;99.90
11549;DHT22;61444;59.472;18.306;2023-07-31T09:22:45;14.90;99.90
11549;DHT22;61444;59.472;18.306;2023-07-31T09:24:53;15.00;99.90
11549;DHT22;61444;59.472;18.306;2023-07-31T09:27:02;14.90;99.90
11549;DHT22;61444;59.472;18.306;2023-07-31T09:29:19;15.10;99.90
11549;DHT22;61444;59.472;18.306;2023-07-31T09:31:41;15.20;99.90
11549;DHT22;61444;59.472;18.306;2023-07-31T09:33:56;16.20;99.90
11549;DHT22;61444;59.472;18.306;2023-07-31T09:36:05;15.30;99.90
11549;DHT22;61444;59.472;18.306;2023-07-31T09:38:18;15.40;99.90
11549;DHT22;61444;59.472;18.306;2023-07-31T09:40:31;15.50;99.90
11549;DHT22;61444;59.472;18.306;2023-07-31T09:42:38;15.50;99.90
11549;DHT22;61444;59.472;18.306;2023-07-31T09:44:48;15.30;99.90
11549;DHT22;61444;59.472;18.306;2023-07-31T09:46:56;15.40;99.90
11549;DHT22;61444;59.472;18.306;2023-07-31T09:49:06;15.70;99.90
11549;DHT22;61444;59.472;18.306;2023-07-31T09:51:16;15.90;99.90
11549;DHT22;61444;59.472;18.306;2023-07-31T09:53:29;16.40;99.90
11549;DHT22;61444;59.472;18.306;2023-07-31T09:55:39;16.60;99.90
11549;DHT22;61444;59.472;18.306;2023-07-31T09:57:48;16.70;99.90
11549;DHT22;61444;59.472;18.306;2023-07-31T09:59:58;17.20;99.90
11549;DHT22;61444;59.472;18.306;2023-07-31T10:02:08;16.80;99.90
11549;DHT22;61444;59.472;18.306;2023-07-31T10:04:25;16.80;99.90
11549;DHT22;61444;59.472;18.306;2023-07-31T10:06:36;17.10;99.90
11549;DHT22;61444;59.472;18.306;2023-07-31T10:08:47;17.20;99.90
11549;DHT22;61444;59.472;18.306;2023-07-31T10:11:00;17.10;99.90
11549;DHT22;61444;59.472;18.306;2023-07-31T10:13:13;17.20;99.90
11549;DHT22;61444;59.472;18.306;2023-07-31T10:15:23;17.20;99.90
11549;DHT22;61444;59.472;18.306;2023-07-31T10:17:37;17.20;99.90
11549;DHT22;61444;59.472;18.306;2023-07-31T10:19:46;17.00;99.90
11549;DHT22;61444;59.472;18.306;2023-07-31T10:21:55;17.50;99.90
11549;DHT22;61444;59.472;18.306;2023-07-31T10:24:05;16.90;99.90
11549;DHT22;61444;59.472;18.306;2023-07-31T10:26:17;17.00;99.90
11549;DHT22;61444;59.472;18.306;2023-07-31T10:28:32;17.20;99.90
11549;DHT22;61444;59.472;18.306;2023-07-31T10:30:42;17.20;99.90
11549;DHT22;61444;59.472;18.306;2023-07-31T10:32:51;17.50;99.90
11549;DHT22;61444;59.472;18.306;2023-07-31T10:35:02;17.30;99.90
11549;DHT22;61444;59.472;18.306;2023-07-31T10:37:25;17.30;99.90
11549;DHT22;61444;59.472;18.306;2023-07-31T10:39:34;17.30;99.90
11549;DHT22;61444;59.472;18.306;2023-07-31T10:41:44;17.20;99.90
11549;DHT22;61444;59.472;18.306;2023-07-31T10:46:08;17.10;99.90
11549;DHT22;61444;59.472;18.306;2023-07-31T10:48:16;17.20;99.90
11549;DHT22;61444;59.472;18.306;2023-07-31T10:50:25;17.30;99.90
11549;DHT22;61444;59.472;18.306;2023-07-31T10:52:34;17.10;99.90
